Huvudsida
METAR-TAF:

METAR-TAF

Flygplatser :

Grove, Oklahoma, USA

latitud: 36-36-19N, longitud: 094-44-19W, höjd: 254 m

Aktuellt väderrapport

Denna rapport gjordes för 21 minuter sedan, klockan 23:55 UTC
Stilla vind
Temperatur 1°C
Fuktighet 55%
Tryck 1029 hPa
Sikt: 16.1 km
Klar himmel

METAR: KGMJ 102355Z AUTO 00000KT 10SM CLR 01/M07 A3040 RMK AO2

Tid: 18:16 (00:16 UTC)


TAF: saknas

Aktuella väderrapporter och prognoser från 4000 flygplatser (METAR- och TAF-rapporter).

De tillgängliga stationerna syns som gula och röda prickar på kartan.

För musen över prickarna för att se namnen på stationerna.

Klicka sedan för att få väderrapporter och prognoser.

För att ändra kartan: Klicka på de gröna knapparna med ett svart kors på för att zooma in; den gröna knappen med ett streck på för att zooma ut; eller på de gröna pilarna för angränsande kartor.


METAR-TAF: